Hog Shooter, Oklahoma
Current Conditions -  °F | °C
As of 4:53 AM on Sunday 23 Nov 2014 (Local Time) from KBVO Reporting Station
Haze Haze  
Wind Chill: 55°   Ceiling: 400
Heat Index: 55°   Visibility: 6mi
Dew Point: 54°   Wind: 9mph
Humidity: 96%   Direction: 170°S
Pressure: 29.57"   Gusts: NA
Location:  36.7524°N, 96.0733°W
Report Text: KBVO 231053Z AUTO 17008KT 6SM BR OVC004 13/12 A2957 RMK AO2 SLP007 T01280122
Loading
Personal Weather Stations






























Interactive Weather Map New forecast layout! Learn more

10-Day Weather Forecast

Advertisements
Track Severe Weather on mobile